sensor_id;sensor_type;location;lat;lon;timestamp;temperature;humidity
3308;DHT22;1666;48.898;9.182;2023-05-10T00:00:22;13.60;58.10
3308;DHT22;1666;48.898;9.182;2023-05-10T00:02:52;13.50;57.50
3308;DHT22;1666;48.898;9.182;2023-05-10T00:05:22;13.50;57.80
3308;DHT22;1666;48.898;9.182;2023-05-10T00:07:52;13.40;57.00
3308;DHT22;1666;48.898;9.182;2023-05-10T00:10:22;13.30;56.40
3308;DHT22;1666;48.898;9.182;2023-05-10T00:12:54;13.30;56.40
3308;DHT22;1666;48.898;9.182;2023-05-10T00:15:25;13.20;56.20
3308;DHT22;1666;48.898;9.182;2023-05-10T00:17:55;13.10;55.30
3308;DHT22;1666;48.898;9.182;2023-05-10T00:20:25;13.00;54.30
3308;DHT22;1666;48.898;9.182;2023-05-10T00:22:55;13.00;54.70
3308;DHT22;1666;48.898;9.182;2023-05-10T00:25:24;13.00;53.70
3308;DHT22;1666;48.898;9.182;2023-05-10T00:27:57;12.90;53.70
3308;DHT22;1666;48.898;9.182;2023-05-10T00:30:28;12.80;54.50
3308;DHT22;1666;48.898;9.182;2023-05-10T00:32:58;12.90;55.40
3308;DHT22;1666;48.898;9.182;2023-05-10T00:35:28;12.90;55.80
3308;DHT22;1666;48.898;9.182;2023-05-10T00:37:58;12.90;54.80
3308;DHT22;1666;48.898;9.182;2023-05-10T00:40:28;12.90;54.60
3308;DHT22;1666;48.898;9.182;2023-05-10T00:43:00;12.90;54.20
3308;DHT22;1666;48.898;9.182;2023-05-10T00:45:31;12.90;55.40
3308;DHT22;1666;48.898;9.182;2023-05-10T00:48:02;12.90;54.40
3308;DHT22;1666;48.898;9.182;2023-05-10T00:50:33;12.80;53.90
3308;DHT22;1666;48.898;9.182;2023-05-10T00:53:03;12.80;53.40
3308;DHT22;1666;48.898;9.182;2023-05-10T00:55:33;12.80;52.90
3308;DHT22;1666;48.898;9.182;2023-05-10T00:58:05;12.80;53.90
3308;DHT22;1666;48.898;9.182;2023-05-10T01:00:36;12.90;55.00
3308;DHT22;1666;48.898;9.182;2023-05-10T01:03:07;12.90;55.00
3308;DHT22;1666;48.898;9.182;2023-05-10T01:05:37;12.80;54.50
3308;DHT22;1666;48.898;9.182;2023-05-10T01:08:08;12.90;55.90
3308;DHT22;1666;48.898;9.182;2023-05-10T01:10:38;12.90;55.00
3308;DHT22;1666;48.898;9.182;2023-05-10T01:13:11;12.80;55.00
3308;DHT22;1666;48.898;9.182;2023-05-10T01:15:41;12.80;55.10
3308;DHT22;1666;48.898;9.182;2023-05-10T01:18:11;12.70;53.30
3308;DHT22;1666;48.898;9.182;2023-05-10T01:20:45;12.70;52.60
3308;DHT22;1666;48.898;9.182;2023-05-10T01:23:41;12.70;51.00
3308;DHT22;1666;48.898;9.182;2023-05-10T01:26:31;12.80;50.60
3308;DHT22;1666;48.898;9.182;2023-05-10T01:29:23;12.90;49.90
3308;DHT22;1666;48.898;9.182;2023-05-10T01:32:26;12.90;48.10
3308;DHT22;1666;48.898;9.182;2023-05-10T01:35:02;12.80;47.40
3308;DHT22;1666;48.898;9.182;2023-05-10T01:37:41;12.80;47.40
3308;DHT22;1666;48.898;9.182;2023-05-10T01:40:17;12.80;48.00
3308;DHT22;1666;48.898;9.182;2023-05-10T01:42:52;12.80;48.10
3308;DHT22;1666;48.898;9.182;2023-05-10T01:45:28;12.80;47.90
3308;DHT22;1666;48.898;9.182;2023-05-10T01:48:06;12.80;49.80
3308;DHT22;1666;48.898;9.182;2023-05-10T01:50:41;12.70;49.20
3308;DHT22;1666;48.898;9.182;2023-05-10T01:53:13;12.80;48.80
3308;DHT22;1666;48.898;9.182;2023-05-10T01:55:49;12.80;47.90
3308;DHT22;1666;48.898;9.182;2023-05-10T01:58:23;12.70;47.30
3308;DHT22;1666;48.898;9.182;2023-05-10T02:00:55;12.80;48.60
3308;DHT22;1666;48.898;9.182;2023-05-10T02:03:29;12.90;48.50
3308;DHT22;1666;48.898;9.182;2023-05-10T02:06:01;12.80;48.10
3308;DHT22;1666;48.898;9.182;2023-05-10T02:08:33;12.80;48.90
3308;DHT22;1666;48.898;9.182;2023-05-10T02:11:04;12.80;48.00
3308;DHT22;1666;48.898;9.182;2023-05-10T02:13:36;12.80;50.10
3308;DHT22;1666;48.898;9.182;2023-05-10T02:16:07;12.80;50.10
3308;DHT22;1666;48.898;9.182;2023-05-10T02:18:41;12.80;49.90
3308;DHT22;1666;48.898;9.182;2023-05-10T02:21:11;12.70;50.00
3308;DHT22;1666;48.898;9.182;2023-05-10T02:23:43;12.70;50.00
3308;DHT22;1666;48.898;9.182;2023-05-10T02:26:14;12.70;49.90
3308;DHT22;1666;48.898;9.182;2023-05-10T02:28:44;12.60;49.80
3308;DHT22;1666;48.898;9.182;2023-05-10T02:31:15;12.70;50.50
3308;DHT22;1666;48.898;9.182;2023-05-10T02:33:48;12.70;51.60
3308;DHT22;1666;48.898;9.182;2023-05-10T02:36:19;12.70;50.80
3308;DHT22;1666;48.898;9.182;2023-05-10T02:38:51;12.70;49.90
3308;DHT22;1666;48.898;9.182;2023-05-10T02:41:21;12.70;49.30
3308;DHT22;1666;48.898;9.182;2023-05-10T02:43:55;12.70;49.60
3308;DHT22;1666;48.898;9.182;2023-05-10T02:46:27;12.80;49.30
3308;DHT22;1666;48.898;9.182;2023-05-10T02:49:00;12.80;48.70
3308;DHT22;1666;48.898;9.182;2023-05-10T02:51:31;12.70;47.30
3308;DHT22;1666;48.898;9.182;2023-05-10T02:54:06;12.80;47.70
3308;DHT22;1666;48.898;9.182;2023-05-10T02:56:40;12.80;47.40
3308;DHT22;1666;48.898;9.182;2023-05-10T02:59:12;12.90;48.00
3308;DHT22;1666;48.898;9.182;2023-05-10T03:01:42;12.80;47.00
3308;DHT22;1666;48.898;9.182;2023-05-10T03:04:14;12.80;46.90
3308;DHT22;1666;48.898;9.182;2023-05-10T03:06:44;12.80;47.90
3308;DHT22;1666;48.898;9.182;2023-05-10T03:09:14;12.90;48.00
3308;DHT22;1666;48.898;9.182;2023-05-10T03:11:59;12.90;47.50
3308;DHT22;1666;48.898;9.182;2023-05-10T03:14:39;12.90;47.00
3308;DHT22;1666;48.898;9.182;2023-05-10T03:17:17;12.90;46.70
3308;DHT22;1666;48.898;9.182;2023-05-10T03:19:54;12.90;44.10
3308;DHT22;1666;48.898;9.182;2023-05-10T03:22:28;13.00;46.40
3308;DHT22;1666;48.898;9.182;2023-05-10T03:25:00;13.00;46.30
3308;DHT22;1666;48.898;9.182;2023-05-10T03:27:34;13.00;45.30
3308;DHT22;1666;48.898;9.182;2023-05-10T03:30:08;13.00;45.90
3308;DHT22;1666;48.898;9.182;2023-05-10T03:32:39;13.10;47.40
3308;DHT22;1666;48.898;9.182;2023-05-10T03:35:12;13.10;46.80
3308;DHT22;1666;48.898;9.182;2023-05-10T03:37:42;13.10;46.40
3308;DHT22;1666;48.898;9.182;2023-05-10T03:40:13;13.10;47.00
3308;DHT22;1666;48.898;9.182;2023-05-10T03:42:44;13.10;46.00
3308;DHT22;1666;48.898;9.182;2023-05-10T03:45:14;13.10;46.20
3308;DHT22;1666;48.898;9.182;2023-05-10T03:47:44;13.10;46.20
3308;DHT22;1666;48.898;9.182;2023-05-10T03:50:16;13.10;45.90
3308;DHT22;1666;48.898;9.182;2023-05-10T03:52:46;13.10;44.30
3308;DHT22;1666;48.898;9.182;2023-05-10T03:55:18;13.10;44.50
3308;DHT22;1666;48.898;9.182;2023-05-10T03:57:49;13.00;42.80
3308;DHT22;1666;48.898;9.182;2023-05-10T04:00:20;13.10;44.00
3308;DHT22;1666;48.898;9.182;2023-05-10T04:02:50;13.10;44.80
3308;DHT22;1666;48.898;9.182;2023-05-10T04:05:23;13.20;45.20
3308;DHT22;1666;48.898;9.182;2023-05-10T04:07:52;13.10;45.30
3308;DHT22;1666;48.898;9.182;2023-05-10T04:10:22;13.10;43.70
3308;DHT22;1666;48.898;9.182;2023-05-10T04:12:52;13.10;44.00
3308;DHT22;1666;48.898;9.182;2023-05-10T04:15:22;13.20;45.30
3308;DHT22;1666;48.898;9.182;2023-05-10T04:17:52;13.20;45.40
3308;DHT22;1666;48.898;9.182;2023-05-10T04:20:25;13.20;45.00
3308;DHT22;1666;48.898;9.182;2023-05-10T04:22:55;13.20;45.50
3308;DHT22;1666;48.898;9.182;2023-05-10T04:25:25;13.20;44.70
3308;DHT22;1666;48.898;9.182;2023-05-10T04:27:55;13.10;44.00
3308;DHT22;1666;48.898;9.182;2023-05-10T04:30:24;13.20;44.70
3308;DHT22;1666;48.898;9.182;2023-05-10T04:32:56;13.20;43.50
3308;DHT22;1666;48.898;9.182;2023-05-10T04:35:28;13.20;41.90
3308;DHT22;1666;48.898;9.182;2023-05-10T04:37:58;13.20;41.20
3308;DHT22;1666;48.898;9.182;2023-05-10T04:40:28;13.20;41.90
3308;DHT22;1666;48.898;9.182;2023-05-10T04:42:58;13.10;40.90
3308;DHT22;1666;48.898;9.182;2023-05-10T04:45:28;13.20;40.00
3308;DHT22;1666;48.898;9.182;2023-05-10T04:47:58;13.10;38.70
3308;DHT22;1666;48.898;9.182;2023-05-10T04:50:30;13.10;38.70
3308;DHT22;1666;48.898;9.182;2023-05-10T04:53:00;13.10;39.10
3308;DHT22;1666;48.898;9.182;2023-05-10T04:55:30;13.20;40.50
3308;DHT22;1666;48.898;9.182;2023-05-10T04:58:00;13.20;39.90
3308;DHT22;1666;48.898;9.182;2023-05-10T05:00:30;13.10;36.70
3308;DHT22;1666;48.898;9.182;2023-05-10T05:03:00;13.30;39.40
3308;DHT22;1666;48.898;9.182;2023-05-10T05:05:32;13.30;37.60
3308;DHT22;1666;48.898;9.182;2023-05-10T05:08:03;13.40;38.70
3308;DHT22;1666;48.898;9.182;2023-05-10T05:10:33;13.30;36.90
3308;DHT22;1666;48.898;9.182;2023-05-10T05:13:03;13.40;38.30
3308;DHT22;1666;48.898;9.182;2023-05-10T05:15:33;13.40;35.60
3308;DHT22;1666;48.898;9.182;2023-05-10T05:18:03;13.50;35.90
3308;DHT22;1666;48.898;9.182;2023-05-10T05:20:35;13.60;35.90
3308;DHT22;1666;48.898;9.182;2023-05-10T05:23:05;13.60;32.30
3308;DHT22;1666;48.898;9.182;2023-05-10T05:25:35;13.70;35.00
3308;DHT22;1666;48.898;9.182;2023-05-10T05:28:05;14.00;31.80
3308;DHT22;1666;48.898;9.182;2023-05-10T05:30:35;14.30;23.60
3308;DHT22;1666;48.898;9.182;2023-05-10T05:33:05;14.40;24.90
3308;DHT22;1666;48.898;9.182;2023-05-10T05:35:37;14.30;25.50
3308;DHT22;1666;48.898;9.182;2023-05-10T05:38:07;14.30;28.00
3308;DHT22;1666;48.898;9.182;2023-05-10T05:40:37;13.90;27.10
3308;DHT22;1666;48.898;9.182;2023-05-10T05:43:07;14.10;30.60
3308;DHT22;1666;48.898;9.182;2023-05-10T05:45:37;13.90;27.30
3308;DHT22;1666;48.898;9.182;2023-05-10T05:48:07;13.80;29.20
3308;DHT22;1666;48.898;9.182;2023-05-10T05:50:40;13.90;30.00
3308;DHT22;1666;48.898;9.182;2023-05-10T05:53:10;13.90;30.90
3308;DHT22;1666;48.898;9.182;2023-05-10T05:55:40;13.90;29.50
3308;DHT22;1666;48.898;9.182;2023-05-10T05:58:10;13.90;29.30
3308;DHT22;1666;48.898;9.182;2023-05-10T06:00:40;13.90;26.90
3308;DHT22;1666;48.898;9.182;2023-05-10T06:03:10;14.00;32.70
3308;DHT22;1666;48.898;9.182;2023-05-10T06:05:42;14.00;31.70
3308;DHT22;1666;48.898;9.182;2023-05-10T06:08:12;13.90;29.60
3308;DHT22;1666;48.898;9.182;2023-05-10T06:10:42;13.70;30.60
3308;DHT22;1666;48.898;9.182;2023-05-10T06:13:12;13.80;30.40
3308;DHT22;1666;48.898;9.182;2023-05-10T06:15:42;13.90;30.40
3308;DHT22;1666;48.898;9.182;2023-05-10T06:18:12;13.90;30.20
3308;DHT22;1666;48.898;9.182;2023-05-10T06:20:44;14.10;29.30
3308;DHT22;1666;48.898;9.182;2023-05-10T06:23:14;14.10;28.30
3308;DHT22;1666;48.898;9.182;2023-05-10T06:25:44;14.30;27.50
3308;DHT22;1666;48.898;9.182;2023-05-10T06:28:14;14.10;27.30
3308;DHT22;1666;48.898;9.182;2023-05-10T06:30:44;14.20;27.50
3308;DHT22;1666;48.898;9.182;2023-05-10T06:33:14;14.30;26.90
3308;DHT22;1666;48.898;9.182;2023-05-10T06:35:47;14.30;25.80
3308;DHT22;1666;48.898;9.182;2023-05-10T06:38:17;14.20;24.30
3308;DHT22;1666;48.898;9.182;2023-05-10T06:40:47;14.20;24.10
3308;DHT22;1666;48.898;9.182;2023-05-10T06:43:17;14.30;22.00
3308;DHT22;1666;48.898;9.182;2023-05-10T06:45:48;14.30;23.00
3308;DHT22;1666;48.898;9.182;2023-05-10T06:48:18;14.50;20.30
3308;DHT22;1666;48.898;9.182;2023-05-10T06:50:51;14.60;20.80
3308;DHT22;1666;48.898;9.182;2023-05-10T06:53:21;14.70;19.00
3308;DHT22;1666;48.898;9.182;2023-05-10T06:55:50;14.50;18.10
3308;DHT22;1666;48.898;9.182;2023-05-10T06:58:20;14.60;20.40
3308;DHT22;1666;48.898;9.182;2023-05-10T07:00:50;14.90;19.30
3308;DHT22;1666;48.898;9.182;2023-05-10T07:03:20;15.20;17.90
3308;DHT22;1666;48.898;9.182;2023-05-10T07:05:53;15.40;14.40
3308;DHT22;1666;48.898;9.182;2023-05-10T07:08:23;15.30;13.00
3308;DHT22;1666;48.898;9.182;2023-05-10T07:10:53;15.00;10.50
3308;DHT22;1666;48.898;9.182;2023-05-10T07:13:23;14.90;14.00
3308;DHT22;1666;48.898;9.182;2023-05-10T07:15:52;15.20;13.80
3308;DHT22;1666;48.898;9.182;2023-05-10T07:18:23;15.30;11.40
3308;DHT22;1666;48.898;9.182;2023-05-10T07:20:56;15.40;12.60
3308;DHT22;1666;48.898;9.182;2023-05-10T07:23:26;15.30;10.70
3308;DHT22;1666;48.898;9.182;2023-05-10T07:25:56;15.30;11.40
3308;DHT22;1666;48.898;9.182;2023-05-10T07:28:27;15.50;10.30
3308;DHT22;1666;48.898;9.182;2023-05-10T07:30:57;15.70;9.70
3308;DHT22;1666;48.898;9.182;2023-05-10T07:33:27;15.80;9.20
3308;DHT22;1666;48.898;9.182;2023-05-10T07:35:59;15.70;5.40
3308;DHT22;1666;48.898;9.182;2023-05-10T07:38:29;15.70;3.90
3308;DHT22;1666;48.898;9.182;2023-05-10T07:40:59;15.60;4.10
3308;DHT22;1666;48.898;9.182;2023-05-10T07:43:29;15.40;5.30
3308;DHT22;1666;48.898;9.182;2023-05-10T07:45:59;15.70;5.00
3308;DHT22;1666;48.898;9.182;2023-05-10T07:48:29;15.40;2.70
3308;DHT22;1666;48.898;9.182;2023-05-10T07:51:01;15.20;6.70
3308;DHT22;1666;48.898;9.182;2023-05-10T07:53:33;15.50;6.30
3308;DHT22;1666;48.898;9.182;2023-05-10T07:56:20;15.20;3.10
3308;DHT22;1666;48.898;9.182;2023-05-10T07:58:51;15.30;3.90
3308;DHT22;1666;48.898;9.182;2023-05-10T08:01:22;15.10;1.00
3308;DHT22;1666;48.898;9.182;2023-05-10T08:03:52;15.10;1.00
3308;DHT22;1666;48.898;9.182;2023-05-10T08:06:25;15.30;1.00
3308;DHT22;1666;48.898;9.182;2023-05-10T08:08:57;15.50;1.00
3308;DHT22;1666;48.898;9.182;2023-05-10T08:11:27;15.20;1.00
3308;DHT22;1666;48.898;9.182;2023-05-10T08:14:00;15.30;1.00
3308;DHT22;1666;48.898;9.182;2023-05-10T08:16:30;15.20;1.00
3308;DHT22;1666;48.898;9.182;2023-05-10T08:19:01;15.20;1.00
3308;DHT22;1666;48.898;9.182;2023-05-10T08:21:34;15.20;1.00
3308;DHT22;1666;48.898;9.182;2023-05-10T08:24:05;15.30;1.00
3308;DHT22;1666;48.898;9.182;2023-05-10T08:26:35;15.40;1.00
3308;DHT22;1666;48.898;9.182;2023-05-10T08:29:05;15.30;1.00
3308;DHT22;1666;48.898;9.182;2023-05-10T08:31:35;15.20;1.00
3308;DHT22;1666;48.898;9.182;2023-05-10T08:34:05;15.30;1.00
3308;DHT22;1666;48.898;9.182;2023-05-10T08:36:37;15.20;1.00
3308;DHT22;1666;48.898;9.182;2023-05-10T08:39:07;15.10;1.00
3308;DHT22;1666;48.898;9.182;2023-05-10T08:41:54;15.10;1.00
3308;DHT22;1666;48.898;9.182;2023-05-10T08:44:27;15.30;1.00
3308;DHT22;1666;48.898;9.182;2023-05-10T08:46:57;15.50;1.00
3308;DHT22;1666;48.898;9.182;2023-05-10T08:49:31;15.50;1.00
3308;DHT22;1666;48.898;9.182;2023-05-10T08:52:05;15.50;1.00
3308;DHT22;1666;48.898;9.182;2023-05-10T08:54:37;15.60;1.00
3308;DHT22;1666;48.898;9.182;2023-05-10T08:57:07;15.60;1.00
3308;DHT22;1666;48.898;9.182;2023-05-10T08:59:37;16.10;1.00
3308;DHT22;1666;48.898;9.182;2023-05-10T09:02:10;15.80;1.00
3308;DHT22;1666;48.898;9.182;2023-05-10T09:04:44;15.80;1.00
3308;DHT22;1666;48.898;9.182;2023-05-10T09:07:18;16.00;1.00
3308;DHT22;1666;48.898;9.182;2023-05-10T09:09:49;16.00;1.00
3308;DHT22;1666;48.898;9.182;2023-05-10T09:12:19;15.80;1.00
3308;DHT22;1666;48.898;9.182;2023-05-10T09:14:50;15.90;1.00
3308;DHT22;1666;48.898;9.182;2023-05-10T09:17:21;16.00;1.00
3308;DHT22;1666;48.898;9.182;2023-05-10T09:19:57;16.10;1.00
3308;DHT22;1666;48.898;9.182;2023-05-10T09:22:30;15.40;1.00
3308;DHT22;1666;48.898;9.182;2023-05-10T09:25:04;15.80;1.00
3308;DHT22;1666;48.898;9.182;2023-05-10T09:27:34;15.30;1.00
3308;DHT22;1666;48.898;9.182;2023-05-10T09:30:06;15.70;1.00
3308;DHT22;1666;48.898;9.182;2023-05-10T09:32:38;15.80;1.00
3308;DHT22;1666;48.898;9.182;2023-05-10T09:35:09;16.10;1.00
3308;DHT22;1666;48.898;9.182;2023-05-10T09:37:44;15.90;1.00
3308;DHT22;1666;48.898;9.182;2023-05-10T09:40:16;16.10;1.00
3308;DHT22;1666;48.898;9.182;2023-05-10T09:42:52;16.40;1.00
3308;DHT22;1666;48.898;9.182;2023-05-10T09:45:23;16.50;1.00
3308;DHT22;1666;48.898;9.182;2023-05-10T09:47:54;16.20;1.00
3308;DHT22;1666;48.898;9.182;2023-05-10T09:50:24;16.80;1.00
3308;DHT22;1666;48.898;9.182;2023-05-10T09:52:58;16.60;1.00
3308;DHT22;1666;48.898;9.182;2023-05-10T09:55:39;16.10;1.00
3308;DHT22;1666;48.898;9.182;2023-05-10T09:58:12;16.10;1.00
3308;DHT22;1666;48.898;9.182;2023-05-10T10:00:43;16.40;1.00
3308;DHT22;1666;48.898;9.182;2023-05-10T10:03:16;16.50;1.00
3308;DHT22;1666;48.898;9.182;2023-05-10T10:05:47;16.90;1.00
3308;DHT22;1666;48.898;9.182;2023-05-10T10:08:23;15.90;1.00
3308;DHT22;1666;48.898;9.182;2023-05-10T10:10:53;16.10;1.00
3308;DHT22;1666;48.898;9.182;2023-05-10T10:13:23;15.70;1.00
3308;DHT22;1666;48.898;9.182;2023-05-10T10:15:54;15.80;1.00
3308;DHT22;1666;48.898;9.182;2023-05-10T10:18:24;15.70;1.00
3308;DHT22;1666;48.898;9.182;2023-05-10T10:20:56;16.10;1.00
3308;DHT22;1666;48.898;9.182;2023-05-10T10:23:31;16.10;1.00
3308;DHT22;1666;48.898;9.182;2023-05-10T10:26:02;16.40;1.00
3308;DHT22;1666;48.898;9.182;2023-05-10T10:28:38;16.50;1.00
3308;DHT22;1666;48.898;9.182;2023-05-10T10:31:19;16.70;1.00
3308;DHT22;1666;48.898;9.182;2023-05-10T10:34:01;17.00;1.00
3308;DHT22;1666;48.898;9.182;2023-05-10T10:36:39;17.20;1.00
3308;DHT22;1666;48.898;9.182;2023-05-10T10:39:12;16.40;1.00
3308;DHT22;1666;48.898;9.182;2023-05-10T10:41:50;16.50;1.00
3308;DHT22;1666;48.898;9.182;2023-05-10T10:44:34;17.00;1.00
3308;DHT22;1666;48.898;9.182;2023-05-10T10:47:07;17.70;1.00
3308;DHT22;1666;48.898;9.182;2023-05-10T10:49:43;17.20;1.00
3308;DHT22;1666;48.898;9.182;2023-05-10T10:52:22;17.30;1.00
3308;DHT22;1666;48.898;9.182;2023-05-10T10:55:02;17.00;1.00
3308;DHT22;1666;48.898;9.182;2023-05-10T10:57:42;17.10;1.00
3308;DHT22;1666;48.898;9.182;2023-05-10T11:00:28;16.60;1.00
3308;DHT22;1666;48.898;9.182;2023-05-10T11:03:00;16.50;1.00
3308;DHT22;1666;48.898;9.182;2023-05-10T11:05:38;16.20;1.00
3308;DHT22;1666;48.898;9.182;2023-05-10T11:08:14;16.10;1.00
3308;DHT22;1666;48.898;9.182;2023-05-10T11:11:06;16.30;1.00
3308;DHT22;1666;48.898;9.182;2023-05-10T11:13:39;16.00;1.00
3308;DHT22;1666;48.898;9.182;2023-05-10T11:16:15;15.50;1.00
3308;DHT22;1666;48.898;9.182;2023-05-10T11:18:58;15.30;1.00
3308;DHT22;1666;48.898;9.182;2023-05-10T11:21:33;15.90;1.00
3308;DHT22;1666;48.898;9.182;2023-05-10T11:24:12;16.00;1.00
3308;DHT22;1666;48.898;9.182;2023-05-10T11:26:45;16.50;1.00
3308;DHT22;1666;48.898;9.182;2023-05-10T11:29:16;16.70;1.00
3308;DHT22;1666;48.898;9.182;2023-05-10T11:31:47;17.00;1.00
3308;DHT22;1666;48.898;9.182;2023-05-10T11:34:24;17.20;1.00
3308;DHT22;1666;48.898;9.182;2023-05-10T11:36:55;16.90;1.00
3308;DHT22;1666;48.898;9.182;2023-05-10T11:39:29;16.90;1.00
3308;DHT22;1666;48.898;9.182;2023-05-10T11:42:03;17.00;1.00
3308;DHT22;1666;48.898;9.182;2023-05-10T11:44:36;16.50;1.00
3308;DHT22;1666;48.898;9.182;2023-05-10T11:47:07;17.50;1.00
3308;DHT22;1666;48.898;9.182;2023-05-10T11:49:37;17.10;1.00
3308;DHT22;1666;48.898;9.182;2023-05-10T11:52:08;16.90;1.00
3308;DHT22;1666;48.898;9.182;2023-05-10T11:54:44;16.90;1.00
3308;DHT22;1666;48.898;9.182;2023-05-10T11:57:18;17.00;1.00
3308;DHT22;1666;48.898;9.182;2023-05-10T11:59:53;16.90;1.00
3308;DHT22;1666;48.898;9.182;2023-05-10T12:02:23;17.50;1.00
3308;DHT22;1666;48.898;9.182;2023-05-10T12:04:53;16.70;1.00
3308;DHT22;1666;48.898;9.182;2023-05-10T12:07:26;17.20;1.00
3308;DHT22;1666;48.898;9.182;2023-05-10T12:10:04;17.00;1.00
3308;DHT22;1666;48.898;9.182;2023-05-10T12:12:43;16.40;1.00
3308;DHT22;1666;48.898;9.182;2023-05-10T12:15:18;16.60;1.00
3308;DHT22;1666;48.898;9.182;2023-05-10T12:17:48;16.80;1.00
3308;DHT22;1666;48.898;9.182;2023-05-10T12:20:20;16.70;1.00
3308;DHT22;1666;48.898;9.182;2023-05-10T12:22:52;17.50;1.00
3308;DHT22;1666;48.898;9.182;2023-05-10T12:25:30;16.80;1.00
3308;DHT22;1666;48.898;9.182;2023-05-10T12:28:03;16.80;1.00
3308;DHT22;1666;48.898;9.182;2023-05-10T12:30:35;16.70;1.00
3308;DHT22;1666;48.898;9.182;2023-05-10T12:33:08;16.50;1.00
3308;DHT22;1666;48.898;9.182;2023-05-10T12:35:46;16.20;1.00
3308;DHT22;1666;48.898;9.182;2023-05-10T12:38:29;16.00;1.00
3308;DHT22;1666;48.898;9.182;2023-05-10T12:41:00;16.70;1.00
3308;DHT22;1666;48.898;9.182;2023-05-10T12:43:33;16.40;1.00
3308;DHT22;1666;48.898;9.182;2023-05-10T12:46:07;16.40;1.00
3308;DHT22;1666;48.898;9.182;2023-05-10T12:48:38;16.20;1.00
3308;DHT22;1666;48.898;9.182;2023-05-10T12:51:09;16.20;1.00
3308;DHT22;1666;48.898;9.182;2023-05-10T12:53:42;16.40;1.00
3308;DHT22;1666;48.898;9.182;2023-05-10T12:56:15;16.60;1.00
3308;DHT22;1666;48.898;9.182;2023-05-10T12:58:48;17.00;1.00
3308;DHT22;1666;48.898;9.182;2023-05-10T13:01:18;16.90;1.00
3308;DHT22;1666;48.898;9.182;2023-05-10T13:03:48;16.10;1.00
3308;DHT22;1666;48.898;9.182;2023-05-10T13:06:18;16.50;1.00
3308;DHT22;1666;48.898;9.182;2023-05-10T13:08:48;17.40;1.00
3308;DHT22;1666;48.898;9.182;2023-05-10T13:11:18;16.90;1.00
3308;DHT22;1666;48.898;9.182;2023-05-10T13:13:51;16.80;1.00
3308;DHT22;1666;48.898;9.182;2023-05-10T13:16:21;17.10;1.00
3308;DHT22;1666;48.898;9.182;2023-05-10T13:18:51;17.30;1.00
3308;DHT22;1666;48.898;9.182;2023-05-10T13:21:21;17.20;1.00
3308;DHT22;1666;48.898;9.182;2023-05-10T13:23:51;16.90;1.00
3308;DHT22;1666;48.898;9.182;2023-05-10T13:26:21;17.20;1.00
3308;DHT22;1666;48.898;9.182;2023-05-10T13:28:55;16.30;1.00
3308;DHT22;1666;48.898;9.182;2023-05-10T13:31:25;16.70;1.00
3308;DHT22;1666;48.898;9.182;2023-05-10T13:33:55;17.10;1.00
3308;DHT22;1666;48.898;9.182;2023-05-10T13:36:25;16.60;1.00
3308;DHT22;1666;48.898;9.182;2023-05-10T13:38:55;16.30;1.00
3308;DHT22;1666;48.898;9.182;2023-05-10T13:41:25;16.90;1.00
3308;DHT22;1666;48.898;9.182;2023-05-10T13:43:58;16.80;1.00
3308;DHT22;1666;48.898;9.182;2023-05-10T13:46:28;17.00;1.00
3308;DHT22;1666;48.898;9.182;2023-05-10T13:48:58;16.90;1.00
3308;DHT22;1666;48.898;9.182;2023-05-10T13:51:28;16.70;1.00
3308;DHT22;1666;48.898;9.182;2023-05-10T13:53:58;16.80;1.00
3308;DHT22;1666;48.898;9.182;2023-05-10T13:56:28;16.50;1.00
3308;DHT22;1666;48.898;9.182;2023-05-10T13:59:01;17.00;1.00
3308;DHT22;1666;48.898;9.182;2023-05-10T14:01:31;16.80;1.00
3308;DHT22;1666;48.898;9.182;2023-05-10T14:04:01;16.60;1.00
3308;DHT22;1666;48.898;9.182;2023-05-10T14:06:31;16.70;1.00
3308;DHT22;1666;48.898;9.182;2023-05-10T14:09:01;17.10;1.00
3308;DHT22;1666;48.898;9.182;2023-05-10T14:11:31;16.30;1.00
3308;DHT22;1666;48.898;9.182;2023-05-10T14:14:03;16.40;1.00
3308;DHT22;1666;48.898;9.182;2023-05-10T14:16:34;16.70;1.00
3308;DHT22;1666;48.898;9.182;2023-05-10T14:19:04;17.10;1.00
3308;DHT22;1666;48.898;9.182;2023-05-10T14:21:34;16.70;1.00
3308;DHT22;1666;48.898;9.182;2023-05-10T14:24:05;16.70;1.00
3308;DHT22;1666;48.898;9.182;2023-05-10T14:26:35;16.80;1.00
3308;DHT22;1666;48.898;9.182;2023-05-10T14:29:08;16.30;1.00
3308;DHT22;1666;48.898;9.182;2023-05-10T14:31:39;16.00;1.00
3308;DHT22;1666;48.898;9.182;2023-05-10T14:34:10;16.50;1.00
3308;DHT22;1666;48.898;9.182;2023-05-10T14:36:39;16.60;1.00
3308;DHT22;1666;48.898;9.182;2023-05-10T14:39:09;16.90;1.00
3308;DHT22;1666;48.898;9.182;2023-05-10T14:41:40;17.00;1.00
3308;DHT22;1666;48.898;9.182;2023-05-10T14:44:14;16.60;1.00
3308;DHT22;1666;48.898;9.182;2023-05-10T14:46:45;17.00;1.00
3308;DHT22;1666;48.898;9.182;2023-05-10T14:49:16;17.00;1.00
3308;DHT22;1666;48.898;9.182;2023-05-10T14:51:49;16.90;1.00
3308;DHT22;1666;48.898;9.182;2023-05-10T14:54:19;17.00;1.00
3308;DHT22;1666;48.898;9.182;2023-05-10T14:56:49;17.20;1.00
3308;DHT22;1666;48.898;9.182;2023-05-10T14:59:22;17.10;1.00
3308;DHT22;1666;48.898;9.182;2023-05-10T15:01:52;16.70;1.00
3308;DHT22;1666;48.898;9.182;2023-05-10T15:04:23;17.20;1.00
3308;DHT22;1666;48.898;9.182;2023-05-10T15:06:54;17.30;1.00
3308;DHT22;1666;48.898;9.182;2023-05-10T15:09:26;17.30;1.00
3308;DHT22;1666;48.898;9.182;2023-05-10T15:11:56;17.10;1.00
3308;DHT22;1666;48.898;9.182;2023-05-10T15:14:29;17.00;1.00
3308;DHT22;1666;48.898;9.182;2023-05-10T15:16:59;17.50;1.00
3308;DHT22;1666;48.898;9.182;2023-05-10T15:19:29;17.60;1.00
3308;DHT22;1666;48.898;9.182;2023-05-10T15:22:00;17.70;1.00
3308;DHT22;1666;48.898;9.182;2023-05-10T15:24:30;17.60;1.00
3308;DHT22;1666;48.898;9.182;2023-05-10T15:26:59;17.70;1.00
3308;DHT22;1666;48.898;9.182;2023-05-10T15:29:32;17.70;1.00
3308;DHT22;1666;48.898;9.182;2023-05-10T15:32:02;17.40;1.00
3308;DHT22;1666;48.898;9.182;2023-05-10T15:34:33;17.60;1.00
3308;DHT22;1666;48.898;9.182;2023-05-10T15:37:03;17.50;1.00
3308;DHT22;1666;48.898;9.182;2023-05-10T15:39:33;17.70;1.00
3308;DHT22;1666;48.898;9.182;2023-05-10T15:42:03;17.60;1.00
3308;DHT22;1666;48.898;9.182;2023-05-10T15:44:35;17.60;1.00
3308;DHT22;1666;48.898;9.182;2023-05-10T15:47:05;17.00;1.00
3308;DHT22;1666;48.898;9.182;2023-05-10T15:49:35;17.20;1.00
3308;DHT22;1666;48.898;9.182;2023-05-10T15:52:05;16.90;1.00
3308;DHT22;1666;48.898;9.182;2023-05-10T15:54:35;16.60;1.00
3308;DHT22;1666;48.898;9.182;2023-05-10T15:57:05;16.30;1.00
3308;DHT22;1666;48.898;9.182;2023-05-10T15:59:37;16.60;1.00
3308;DHT22;1666;48.898;9.182;2023-05-10T16:02:08;16.50;1.00
3308;DHT22;1666;48.898;9.182;2023-05-10T16:04:38;16.70;1.00
3308;DHT22;1666;48.898;9.182;2023-05-10T16:07:08;16.90;1.00
3308;DHT22;1666;48.898;9.182;2023-05-10T16:09:38;17.20;1.00
3308;DHT22;1666;48.898;9.182;2023-05-10T16:12:08;16.90;1.00
3308;DHT22;1666;48.898;9.182;2023-05-10T16:14:41;16.70;1.00
3308;DHT22;1666;48.898;9.182;2023-05-10T16:17:10;16.60;1.00
3308;DHT22;1666;48.898;9.182;2023-05-10T16:19:41;16.60;1.00
3308;DHT22;1666;48.898;9.182;2023-05-10T16:22:11;16.80;1.00
3308;DHT22;1666;48.898;9.182;2023-05-10T16:24:41;16.90;1.00
3308;DHT22;1666;48.898;9.182;2023-05-10T16:27:11;16.90;1.00
3308;DHT22;1666;48.898;9.182;2023-05-10T16:29:43;16.90;1.00
3308;DHT22;1666;48.898;9.182;2023-05-10T16:32:13;16.90;1.00
3308;DHT22;1666;48.898;9.182;2023-05-10T16:34:43;16.50;1.00
3308;DHT22;1666;48.898;9.182;2023-05-10T16:37:13;16.50;1.00
3308;DHT22;1666;48.898;9.182;2023-05-10T16:39:43;16.50;1.00